Time;durP1;ratioP1;P1;durP2;ratioP2;P2;SDS_P1;SDS_P2;PMS_P1;PMS_P2;Temp;Humidity;BMP_temperature;BMP_pressure;BME280_temperature;BME280_humidity;BME280_pressure;Samples;Min_cycle;Max_cycle;Signal;HPM_P1;HPM_P2
2022/12/16 00:00:04;;;;;;;58.50;25.50;;;-6.70;99.90;;;;;;5001901;28;20066;-75
2022/12/16 00:02:29;;;;;;;53.17;22.70;;;-6.70;99.90;;;;;;4970335;28;20061;-78
2022/12/16 00:04:56;;;;;;;48.13;20.95;;;-6.70;99.90;;;;;;4986741;28;20058;-78
2022/12/16 00:07:22;;;;;;;59.00;24.77;;;-6.40;99.90;;;;;;4986525;28;20045;-76
2022/12/16 00:09:47;;;;;;;54.28;23.27;;;-6.50;99.90;;;;;;5002734;28;20391;-75
2022/12/16 00:12:13;;;;;;;57.35;26.40;;;-6.40;99.90;;;;;;4953779;28;20022;-77
2022/12/16 00:14:38;;;;;;;59.92;25.98;;;-6.60;99.90;;;;;;4987322;28;20045;-76
2022/12/16 00:17:04;;;;;;;50.88;22.75;;;-6.60;99.90;;;;;;4969830;28;20039;-76
2022/12/16 00:19:30;;;;;;;63.50;26.55;;;-6.50;99.90;;;;;;4969885;28;20030;-75
2022/12/16 00:21:56;;;;;;;63.72;30.25;;;-6.70;99.90;;;;;;4969068;28;20038;-75
2022/12/16 00:24:21;;;;;;;71.57;29.45;;;-6.90;99.90;;;;;;4991596;28;20058;-79
2022/12/16 00:26:47;;;;;;;60.15;26.77;;;-7.00;99.90;;;;;;4970655;28;20054;-78
2022/12/16 00:29:12;;;;;;;67.85;27.00;;;-7.10;99.90;;;;;;4985951;28;20050;-78
2022/12/16 00:31:38;;;;;;;59.13;26.65;;;-7.30;99.90;;;;;;4984535;28;20105;-78
2022/12/16 00:34:03;;;;;;;63.22;28.02;;;-7.30;99.90;;;;;;4987532;28;20462;-76
2022/12/16 00:36:29;;;;;;;65.30;29.20;;;-7.30;99.90;;;;;;4986644;28;20045;-78
2022/12/16 00:38:55;;;;;;;65.22;27.65;;;-7.30;99.90;;;;;;4990335;28;20053;-78
2022/12/16 00:41:20;;;;;;;67.85;29.02;;;-7.40;99.90;;;;;;4986844;28;20030;-77
2022/12/16 00:43:46;;;;;;;63.03;27.08;;;-7.50;99.90;;;;;;4986450;28;20125;-78
2022/12/16 00:46:12;;;;;;;60.72;27.83;;;-7.60;99.90;;;;;;4969433;28;20042;-76
2022/12/16 00:48:37;;;;;;;66.18;28.08;;;-7.60;99.90;;;;;;5000335;28;20037;-77
2022/12/16 00:51:04;;;;;;;70.25;28.67;;;-7.70;99.90;;;;;;4986222;28;20035;-77
2022/12/16 00:53:30;;;;;;;65.55;27.17;;;-7.50;99.90;;;;;;5001650;28;20057;-77
2022/12/16 00:56:06;;;;;;;61.40;24.80;;;-7.30;99.90;;;;;;4969643;28;20034;-77
2022/12/16 00:58:32;;;;;;;65.38;27.60;;;-7.40;99.90;;;;;;4986529;28;20065;-77
2022/12/16 01:00:57;;;;;;;58.28;26.88;;;-7.40;99.90;;;;;;4985607;28;20456;-78
2022/12/16 01:03:23;;;;;;;62.03;26.10;;;-7.60;99.90;;;;;;4970708;28;20057;-77
2022/12/16 01:05:48;;;;;;;62.72;25.50;;;-7.60;99.90;;;;;;4968824;28;20050;-78
2022/12/16 01:08:14;;;;;;;60.22;26.83;;;-7.60;99.90;;;;;;5001860;28;20410;-77
2022/12/16 01:10:40;;;;;;;61.85;25.20;;;-7.70;99.90;;;;;;4952327;28;20031;-77
2022/12/16 01:13:05;;;;;;;42.90;21.08;;;-7.60;99.90;;;;;;4984820;28;20038;-77
2022/12/16 01:15:31;;;;;;;52.45;21.80;;;-7.50;99.90;;;;;;5001544;28;20081;-78
2022/12/16 01:17:56;;;;;;;61.13;25.10;;;-7.50;99.90;;;;;;4985022;28;20030;-77
2022/12/16 01:20:22;;;;;;;68.75;27.35;;;-7.60;99.90;;;;;;5001117;28;20038;-77
2022/12/16 01:22:47;;;;;;;62.47;24.85;;;-7.80;99.90;;;;;;4986084;28;20027;-77
2022/12/16 01:25:13;;;;;;;57.22;24.58;;;-7.90;99.90;;;;;;4984971;28;20077;-77
2022/12/16 01:27:38;;;;;;;57.60;25.40;;;-7.90;99.90;;;;;;4987160;28;20026;-78
2022/12/16 01:30:04;;;;;;;63.15;25.38;;;-7.80;99.90;;;;;;4987779;28;20089;-77
2022/12/16 01:32:30;;;;;;;59.65;25.65;;;-7.90;99.90;;;;;;4984625;28;20045;-77
2022/12/16 01:34:56;;;;;;;57.65;25.45;;;-7.90;99.90;;;;;;4984081;28;20038;-78
2022/12/16 01:37:21;;;;;;;46.58;21.48;;;-7.90;99.90;;;;;;4968963;28;20494;-77
2022/12/16 01:39:47;;;;;;;66.25;25.77;;;-7.70;99.90;;;;;;4983082;28;20534;-77
2022/12/16 01:42:14;;;;;;;59.22;24.70;;;-7.70;99.90;;;;;;4967070;28;20482;-78
2022/12/16 01:44:43;;;;;;;64.55;24.90;;;-8.00;99.90;;;;;;4981258;28;20034;-77
2022/12/16 01:47:15;;;;;;;52.85;22.13;;;-8.00;99.90;;;;;;4984408;28;20038;-77
2022/12/16 01:49:51;;;;;;;61.17;24.73;;;-7.90;99.90;;;;;;4998534;28;20034;-77
2022/12/16 01:52:20;;;;;;;63.05;25.73;;;-7.70;99.90;;;;;;4967086;28;20029;-77
2022/12/16 01:54:49;;;;;;;56.72;23.63;;;-8.00;99.90;;;;;;4981235;28;20503;-77
2022/12/16 01:57:17;;;;;;;52.97;22.83;;;-8.10;99.90;;;;;;4982836;28;20088;-77
2022/12/16 01:59:43;;;;;;;50.58;20.95;;;-7.90;99.90;;;;;;4983199;28;20027;-77
2022/12/16 02:02:09;;;;;;;78.75;36.03;;;-7.70;99.90;;;;;;4983208;28;20366;-77
2022/12/16 02:05:19;;;;;;;59.53;26.63;;;-7.80;99.90;;;;;;4949297;28;20037;-77
2022/12/16 02:07:20;;;;;;;60.75;26.70;;;-8.10;99.90;;;;;;4968859;28;20049;-77
2022/12/16 02:09:46;;;;;;;59.75;25.95;;;-8.30;99.90;;;;;;4982673;28;20452;-77
2022/12/16 02:12:37;;;;;;;61.80;24.52;;;-8.30;99.90;;;;;;4965780;28;20022;-77
2022/12/16 02:15:17;;;;;;;59.28;25.08;;;-8.00;99.90;;;;;;4998643;28;20464;-77
2022/12/16 02:18:03;;;;;;;61.00;25.08;;;-8.00;99.90;;;;;;4996576;28;20050;-77
2022/12/16 02:20:50;;;;;;;64.60;25.93;;;-8.10;99.90;;;;;;4999357;28;20125;-77
2022/12/16 02:23:41;;;;;;;59.38;25.00;;;-8.20;99.90;;;;;;4968779;28;20034;-77
2022/12/16 02:26:44;;;;;;;59.83;25.67;;;-8.10;99.90;;;;;;4981506;28;20109;-77
2022/12/16 02:29:14;;;;;;;58.78;24.58;;;-8.10;99.90;;;;;;4981108;28;20022;-77
2022/12/16 02:32:02;;;;;;;53.03;22.08;;;-8.10;99.90;;;;;;4982838;28;20474;-77
2022/12/16 02:34:34;;;;;;;50.80;22.77;;;-8.00;99.90;;;;;;4981109;28;20053;-77
2022/12/16 02:37:38;;;;;;;55.92;23.48;;;-8.10;99.90;;;;;;4982485;28;20114;-77
2022/12/16 02:40:10;;;;;;;62.72;26.30;;;-8.30;99.90;;;;;;4981492;28;20031;-77
2022/12/16 02:42:44;;;;;;;57.28;24.30;;;-8.40;99.90;;;;;;4980662;28;20432;-77
2022/12/16 02:45:16;;;;;;;56.92;23.27;;;-8.50;99.90;;;;;;4967524;28;20077;-77
2022/12/16 02:47:42;;;;;;;52.08;21.33;;;-8.50;99.90;;;;;;4983316;28;20545;-77
2022/12/16 02:50:19;;;;;;;58.92;23.95;;;-8.10;99.90;;;;;;4965975;28;20066;-78
2022/12/16 02:52:45;;;;;;;43.72;18.67;;;-8.20;99.90;;;;;;4966617;28;20042;-77
2022/12/16 02:55:10;;;;;;;47.58;19.67;;;-8.10;99.90;;;;;;4983981;28;20057;-77
2022/12/16 02:57:46;;;;;;;40.03;16.50;;;-7.90;99.90;;;;;;4966192;28;20038;-77
2022/12/16 03:00:19;;;;;;;42.10;16.00;;;-7.70;99.90;;;;;;4981834;28;20042;-77
2022/12/16 03:02:48;;;;;;;40.67;17.17;;;-7.60;99.90;;;;;;4982430;28;20026;-77
2022/12/16 03:05:27;;;;;;;41.83;17.70;;;-7.50;99.90;;;;;;4984329;28;20030;-77
2022/12/16 03:07:52;;;;;;;43.10;20.65;;;-7.40;99.90;;;;;;4979724;28;20425;-77
2022/12/16 03:10:19;;;;;;;49.65;21.67;;;-7.50;99.90;;;;;;4999587;28;20035;-77
2022/12/16 03:12:45;;;;;;;55.03;21.50;;;-7.80;99.90;;;;;;4965634;28;20100;-77
2022/12/16 03:15:15;;;;;;;41.55;18.10;;;-8.10;99.90;;;;;;4966654;28;20092;-77
2022/12/16 03:17:41;;;;;;;44.25;18.60;;;-8.00;99.90;;;;;;4966969;28;20058;-77
2022/12/16 03:20:10;;;;;;;43.70;17.52;;;-8.00;99.90;;;;;;4998725;28;20066;-77
2022/12/16 03:22:36;;;;;;;45.15;20.02;;;-7.90;99.90;;;;;;4995982;28;20142;-77
2022/12/16 03:25:03;;;;;;;54.38;25.23;;;-8.00;99.90;;;;;;4967364;28;20153;-77
2022/12/16 03:28:10;;;;;;;42.03;20.27;;;-8.10;99.90;;;;;;4998490;28;20512;-77
2022/12/16 03:30:38;;;;;;;;;;;-8.40;99.90;;;;;;4981453;28;20121;-77
2022/12/16 03:33:32;;;;;;;56.45;22.13;;;-8.60;99.90;;;;;;4964521;28;19968;-77
2022/12/16 03:36:13;;;;;;;52.85;20.83;;;-8.50;99.90;;;;;;4981706;28;20034;-77
2022/12/16 03:38:39;;;;;;;55.95;21.98;;;-8.60;99.90;;;;;;4951174;28;20050;-77
2022/12/16 03:41:05;;;;;;;51.95;21.75;;;-8.60;99.90;;;;;;4970920;28;20344;-77
2022/12/16 03:43:30;;;;;;;48.55;22.42;;;-8.50;99.90;;;;;;4986125;28;20538;-77
2022/12/16 03:45:59;;;;;;;48.30;20.83;;;-8.60;99.90;;;;;;4985049;28;20037;-77
2022/12/16 03:48:24;;;;;;;43.90;19.42;;;-8.60;99.90;;;;;;4985521;28;20478;-78
2022/12/16 03:50:50;;;;;;;46.60;20.20;;;-8.60;99.90;;;;;;4968184;28;20033;-78
2022/12/16 03:53:15;;;;;;;44.33;21.92;;;-8.70;99.90;;;;;;4970575;28;20394;-77
2022/12/16 03:55:41;;;;;;;43.45;19.95;;;-8.70;99.90;;;;;;5001456;28;20034;-77
2022/12/16 03:58:06;;;;;;;45.90;20.17;;;-8.60;99.90;;;;;;4988746;28;20389;-83
2022/12/16 04:00:32;;;;;;;57.30;21.08;;;-8.70;99.90;;;;;;4986463;28;20034;-77
2022/12/16 04:02:58;;;;;;;49.53;20.90;;;-8.60;99.90;;;;;;4985257;28;20038;-76
2022/12/16 04:05:23;;;;;;;47.55;19.92;;;-8.80;99.90;;;;;;4999529;28;20034;-77
2022/12/16 04:07:49;;;;;;;47.70;21.00;;;-8.60;99.90;;;;;;4985172;28;20084;-77
2022/12/16 04:10:14;;;;;;;51.30;21.15;;;-8.60;99.90;;;;;;4985379;28;20023;-77
2022/12/16 04:29:18;;;;;;;43.53;18.45;;;-8.30;99.90;;;;;;4998397;28;20445;-77
2022/12/16 04:31:44;;;;;;;52.53;20.52;;;-8.20;99.90;;;;;;4989326;28;20030;-77
2022/12/16 04:34:24;;;;;;;43.35;19.20;;;-8.20;99.90;;;;;;4968996;28;20130;-77
